sensor_id;sensor_type;location;lat;lon;timestamp;temperature;humidity
38910;DHT22;24676;51.360;12.354;2023-05-23T00:00:55;17.70;99.90
38910;DHT22;24676;51.360;12.354;2023-05-23T00:03:41;17.60;99.90
38910;DHT22;24676;51.360;12.354;2023-05-23T00:06:26;17.70;99.90
38910;DHT22;24676;51.360;12.354;2023-05-23T00:09:10;17.70;99.90
38910;DHT22;24676;51.360;12.354;2023-05-23T00:11:54;17.70;99.90
38910;DHT22;24676;51.360;12.354;2023-05-23T00:14:39;17.80;99.90
38910;DHT22;24676;51.360;12.354;2023-05-23T00:17:23;17.80;99.90
38910;DHT22;24676;51.360;12.354;2023-05-23T00:20:08;17.80;99.90
38910;DHT22;24676;51.360;12.354;2023-05-23T00:22:54;17.90;99.90
38910;DHT22;24676;51.360;12.354;2023-05-23T00:25:41;17.90;99.90
38910;DHT22;24676;51.360;12.354;2023-05-23T00:28:31;17.90;99.90
38910;DHT22;24676;51.360;12.354;2023-05-23T00:31:15;17.90;99.90
38910;DHT22;24676;51.360;12.354;2023-05-23T00:34:00;17.90;99.90
38910;DHT22;24676;51.360;12.354;2023-05-23T00:36:45;17.80;99.90
38910;DHT22;24676;51.360;12.354;2023-05-23T00:39:33;17.80;99.90
38910;DHT22;24676;51.360;12.354;2023-05-23T00:42:17;17.80;99.90
38910;DHT22;24676;51.360;12.354;2023-05-23T00:45:02;17.80;99.90
38910;DHT22;24676;51.360;12.354;2023-05-23T00:47:46;17.70;99.90
38910;DHT22;24676;51.360;12.354;2023-05-23T00:50:31;17.70;99.90
38910;DHT22;24676;51.360;12.354;2023-05-23T00:53:17;17.60;99.90
38910;DHT22;24676;51.360;12.354;2023-05-23T00:56:01;17.60;99.90
38910;DHT22;24676;51.360;12.354;2023-05-23T00:58:46;17.50;99.90
38910;DHT22;24676;51.360;12.354;2023-05-23T01:01:30;17.50;99.90
38910;DHT22;24676;51.360;12.354;2023-05-23T01:04:15;17.50;99.90
38910;DHT22;24676;51.360;12.354;2023-05-23T01:06:59;17.40;99.90
38910;DHT22;24676;51.360;12.354;2023-05-23T01:09:44;17.40;99.90
38910;DHT22;24676;51.360;12.354;2023-05-23T01:15:58;17.20;99.90
38910;DHT22;24676;51.360;12.354;2023-05-23T01:19:08;17.10;99.90
38910;DHT22;24676;51.360;12.354;2023-05-23T01:22:00;17.10;99.90
38910;DHT22;24676;51.360;12.354;2023-05-23T01:24:56;17.00;99.90
38910;DHT22;24676;51.360;12.354;2023-05-23T01:27:59;17.00;99.90
38910;DHT22;24676;51.360;12.354;2023-05-23T01:30:45;17.00;99.90
38910;DHT22;24676;51.360;12.354;2023-05-23T01:33:31;16.90;99.90
38910;DHT22;24676;51.360;12.354;2023-05-23T01:36:15;16.90;99.90
38910;DHT22;24676;51.360;12.354;2023-05-23T01:39:00;16.90;99.90
38910;DHT22;24676;51.360;12.354;2023-05-23T01:41:45;17.00;99.90
38910;DHT22;24676;51.360;12.354;2023-05-23T01:44:30;17.00;99.90
38910;DHT22;24676;51.360;12.354;2023-05-23T01:47:15;17.00;99.90
38910;DHT22;24676;51.360;12.354;2023-05-23T01:50:01;17.00;99.90
38910;DHT22;24676;51.360;12.354;2023-05-23T01:52:46;17.00;99.90
38910;DHT22;24676;51.360;12.354;2023-05-23T01:55:30;17.00;99.90
38910;DHT22;24676;51.360;12.354;2023-05-23T01:58:15;16.90;99.90
38910;DHT22;24676;51.360;12.354;2023-05-23T02:01:00;16.90;99.90
38910;DHT22;24676;51.360;12.354;2023-05-23T02:03:46;17.00;99.90
38910;DHT22;24676;51.360;12.354;2023-05-23T02:06:31;17.00;99.90
38910;DHT22;24676;51.360;12.354;2023-05-23T02:09:16;17.00;99.90
38910;DHT22;24676;51.360;12.354;2023-05-23T02:12:00;16.90;99.90
38910;DHT22;24676;51.360;12.354;2023-05-23T02:14:45;16.90;99.90
38910;DHT22;24676;51.360;12.354;2023-05-23T02:17:29;16.90;99.90
38910;DHT22;24676;51.360;12.354;2023-05-23T02:20:14;16.80;99.90
38910;DHT22;24676;51.360;12.354;2023-05-23T02:22:58;16.80;99.90
38910;DHT22;24676;51.360;12.354;2023-05-23T02:25:43;16.70;99.90
38910;DHT22;24676;51.360;12.354;2023-05-23T02:28:27;16.70;99.90
38910;DHT22;24676;51.360;12.354;2023-05-23T02:31:12;16.70;99.90
38910;DHT22;24676;51.360;12.354;2023-05-23T02:33:56;16.60;99.90
38910;DHT22;24676;51.360;12.354;2023-05-23T02:36:40;16.60;99.90
38910;DHT22;24676;51.360;12.354;2023-05-23T02:39:26;16.70;99.90
38910;DHT22;24676;51.360;12.354;2023-05-23T02:42:10;16.70;99.90
38910;DHT22;24676;51.360;12.354;2023-05-23T02:44:55;16.80;99.90
38910;DHT22;24676;51.360;12.354;2023-05-23T02:47:39;16.90;99.90
38910;DHT22;24676;51.360;12.354;2023-05-23T02:50:23;16.90;99.90
38910;DHT22;24676;51.360;12.354;2023-05-23T02:53:07;16.90;99.90
38910;DHT22;24676;51.360;12.354;2023-05-23T02:55:51;17.00;99.90
38910;DHT22;24676;51.360;12.354;2023-05-23T02:58:36;17.00;99.90
38910;DHT22;24676;51.360;12.354;2023-05-23T03:01:20;17.00;99.90
38910;DHT22;24676;51.360;12.354;2023-05-23T03:04:04;17.00;99.90
38910;DHT22;24676;51.360;12.354;2023-05-23T03:06:49;17.00;99.90
38910;DHT22;24676;51.360;12.354;2023-05-23T03:09:36;17.00;99.90
38910;DHT22;24676;51.360;12.354;2023-05-23T03:12:21;17.00;99.90
38910;DHT22;24676;51.360;12.354;2023-05-23T03:15:06;17.00;99.90
38910;DHT22;24676;51.360;12.354;2023-05-23T03:17:50;16.90;99.90
38910;DHT22;24676;51.360;12.354;2023-05-23T03:20:35;16.90;99.90
38910;DHT22;24676;51.360;12.354;2023-05-23T03:23:19;16.90;99.90
38910;DHT22;24676;51.360;12.354;2023-05-23T03:26:04;16.90;99.90
38910;DHT22;24676;51.360;12.354;2023-05-23T03:28:49;16.90;99.90
38910;DHT22;24676;51.360;12.354;2023-05-23T03:31:34;16.90;99.90
38910;DHT22;24676;51.360;12.354;2023-05-23T03:34:18;16.90;99.90
38910;DHT22;24676;51.360;12.354;2023-05-23T03:37:02;16.90;99.90
38910;DHT22;24676;51.360;12.354;2023-05-23T03:39:46;16.90;99.90
38910;DHT22;24676;51.360;12.354;2023-05-23T03:42:31;16.80;99.90
38910;DHT22;24676;51.360;12.354;2023-05-23T03:45:15;16.80;99.90
38910;DHT22;24676;51.360;12.354;2023-05-23T03:48:01;16.80;99.90
38910;DHT22;24676;51.360;12.354;2023-05-23T03:50:45;16.80;99.90
38910;DHT22;24676;51.360;12.354;2023-05-23T03:53:29;16.70;99.90
38910;DHT22;24676;51.360;12.354;2023-05-23T03:56:14;16.70;99.90
38910;DHT22;24676;51.360;12.354;2023-05-23T03:58:58;16.80;99.90
38910;DHT22;24676;51.360;12.354;2023-05-23T04:01:42;16.80;99.90
38910;DHT22;24676;51.360;12.354;2023-05-23T04:04:27;16.80;99.90
38910;DHT22;24676;51.360;12.354;2023-05-23T04:07:12;16.80;99.90
38910;DHT22;24676;51.360;12.354;2023-05-23T04:09:58;16.80;99.90
38910;DHT22;24676;51.360;12.354;2023-05-23T04:12:43;16.80;99.90
38910;DHT22;24676;51.360;12.354;2023-05-23T04:15:27;16.80;99.90
38910;DHT22;24676;51.360;12.354;2023-05-23T04:18:11;16.80;99.90
38910;DHT22;24676;51.360;12.354;2023-05-23T04:20:55;16.80;99.90
38910;DHT22;24676;51.360;12.354;2023-05-23T04:23:39;16.80;99.90
38910;DHT22;24676;51.360;12.354;2023-05-23T04:26:26;16.80;99.90
38910;DHT22;24676;51.360;12.354;2023-05-23T04:29:12;16.90;99.90
38910;DHT22;24676;51.360;12.354;2023-05-23T04:31:56;16.90;99.90
38910;DHT22;24676;51.360;12.354;2023-05-23T04:34:41;17.00;99.90
38910;DHT22;24676;51.360;12.354;2023-05-23T04:37:27;16.90;99.90
38910;DHT22;24676;51.360;12.354;2023-05-23T04:40:11;16.90;99.90
38910;DHT22;24676;51.360;12.354;2023-05-23T04:42:56;16.90;99.90
38910;DHT22;24676;51.360;12.354;2023-05-23T04:45:40;17.00;99.90
38910;DHT22;24676;51.360;12.354;2023-05-23T04:48:25;17.30;99.90
38910;DHT22;24676;51.360;12.354;2023-05-23T04:51:10;17.90;99.90
38910;DHT22;24676;51.360;12.354;2023-05-23T04:53:54;18.70;99.90
38910;DHT22;24676;51.360;12.354;2023-05-23T04:56:39;19.60;99.90
38910;DHT22;24676;51.360;12.354;2023-05-23T04:59:23;20.60;99.90
38910;DHT22;24676;51.360;12.354;2023-05-23T05:02:08;21.20;99.90
38910;DHT22;24676;51.360;12.354;2023-05-23T05:04:52;21.90;99.90
38910;DHT22;24676;51.360;12.354;2023-05-23T05:07:36;22.50;99.90
38910;DHT22;24676;51.360;12.354;2023-05-23T05:10:21;23.00;99.90
38910;DHT22;24676;51.360;12.354;2023-05-23T05:13:05;23.40;99.90
38910;DHT22;24676;51.360;12.354;2023-05-23T05:15:49;24.20;99.90
38910;DHT22;24676;51.360;12.354;2023-05-23T05:18:35;24.70;97.50
38910;DHT22;24676;51.360;12.354;2023-05-23T05:21:19;25.10;92.30
38910;DHT22;24676;51.360;12.354;2023-05-23T05:24:04;25.60;85.10
38910;DHT22;24676;51.360;12.354;2023-05-23T05:26:48;25.20;84.50
38910;DHT22;24676;51.360;12.354;2023-05-23T05:29:32;24.50;88.70
38910;DHT22;24676;51.360;12.354;2023-05-23T05:32:17;23.60;94.50
38910;DHT22;24676;51.360;12.354;2023-05-23T05:35:03;22.60;99.90
38910;DHT22;24676;51.360;12.354;2023-05-23T05:37:47;21.60;99.90
38910;DHT22;24676;51.360;12.354;2023-05-23T05:40:31;20.80;99.90
38910;DHT22;24676;51.360;12.354;2023-05-23T05:43:15;20.10;99.90
38910;DHT22;24676;51.360;12.354;2023-05-23T05:45:59;19.70;99.90
38910;DHT22;24676;51.360;12.354;2023-05-23T05:48:45;19.30;99.90
38910;DHT22;24676;51.360;12.354;2023-05-23T05:51:29;19.00;99.90
38910;DHT22;24676;51.360;12.354;2023-05-23T05:54:14;18.70;99.90
38910;DHT22;24676;51.360;12.354;2023-05-23T05:56:59;18.70;99.90
38910;DHT22;24676;51.360;12.354;2023-05-23T05:59:43;18.70;99.90
38910;DHT22;24676;51.360;12.354;2023-05-23T06:02:27;18.70;99.90
38910;DHT22;24676;51.360;12.354;2023-05-23T06:05:12;18.70;99.90
38910;DHT22;24676;51.360;12.354;2023-05-23T06:07:58;18.70;99.90
38910;DHT22;24676;51.360;12.354;2023-05-23T06:10:42;18.80;99.90
38910;DHT22;24676;51.360;12.354;2023-05-23T06:13:26;18.80;99.90
38910;DHT22;24676;51.360;12.354;2023-05-23T06:16:11;18.80;99.90
38910;DHT22;24676;51.360;12.354;2023-05-23T06:18:55;18.60;99.90
38910;DHT22;24676;51.360;12.354;2023-05-23T06:21:39;18.60;99.90
38910;DHT22;24676;51.360;12.354;2023-05-23T06:24:24;18.50;99.90
38910;DHT22;24676;51.360;12.354;2023-05-23T06:27:08;18.30;99.90
38910;DHT22;24676;51.360;12.354;2023-05-23T06:29:52;18.20;99.90
38910;DHT22;24676;51.360;12.354;2023-05-23T06:32:36;18.10;99.90
38910;DHT22;24676;51.360;12.354;2023-05-23T06:35:21;18.10;99.90
38910;DHT22;24676;51.360;12.354;2023-05-23T06:38:05;18.00;99.90
38910;DHT22;24676;51.360;12.354;2023-05-23T06:40:49;17.80;99.90
38910;DHT22;24676;51.360;12.354;2023-05-23T06:43:34;17.70;99.90
38910;DHT22;24676;51.360;12.354;2023-05-23T06:46:18;17.60;99.90
38910;DHT22;24676;51.360;12.354;2023-05-23T06:49:02;17.60;99.90
38910;DHT22;24676;51.360;12.354;2023-05-23T06:51:46;17.40;99.90
38910;DHT22;24676;51.360;12.354;2023-05-23T06:54:30;17.20;99.90
38910;DHT22;24676;51.360;12.354;2023-05-23T06:57:15;17.00;99.90
38910;DHT22;24676;51.360;12.354;2023-05-23T06:59:59;16.90;99.90
38910;DHT22;24676;51.360;12.354;2023-05-23T07:02:43;16.70;99.90
38910;DHT22;24676;51.360;12.354;2023-05-23T07:05:29;16.70;99.90
38910;DHT22;24676;51.360;12.354;2023-05-23T07:08:13;16.70;99.90
38910;DHT22;24676;51.360;12.354;2023-05-23T07:10:58;16.80;99.90
38910;DHT22;24676;51.360;12.354;2023-05-23T07:13:42;16.90;99.90
38910;DHT22;24676;51.360;12.354;2023-05-23T07:16:26;17.00;99.90
38910;DHT22;24676;51.360;12.354;2023-05-23T07:19:11;17.10;99.90
38910;DHT22;24676;51.360;12.354;2023-05-23T07:21:55;17.20;99.90
38910;DHT22;24676;51.360;12.354;2023-05-23T07:24:40;17.40;99.90
38910;DHT22;24676;51.360;12.354;2023-05-23T07:27:26;17.40;99.90
38910;DHT22;24676;51.360;12.354;2023-05-23T07:30:10;17.50;99.90
38910;DHT22;24676;51.360;12.354;2023-05-23T07:32:54;17.70;99.90
38910;DHT22;24676;51.360;12.354;2023-05-23T07:35:39;17.80;99.90
38910;DHT22;24676;51.360;12.354;2023-05-23T07:38:25;17.90;99.90
38910;DHT22;24676;51.360;12.354;2023-05-23T07:41:09;18.00;99.90
38910;DHT22;24676;51.360;12.354;2023-05-23T07:43:53;17.80;99.90
38910;DHT22;24676;51.360;12.354;2023-05-23T07:46:38;17.80;99.90
38910;DHT22;24676;51.360;12.354;2023-05-23T07:49:22;17.70;99.90
38910;DHT22;24676;51.360;12.354;2023-05-23T07:52:07;17.80;99.90
38910;DHT22;24676;51.360;12.354;2023-05-23T07:54:51;17.80;99.90
38910;DHT22;24676;51.360;12.354;2023-05-23T07:57:36;17.80;99.90
38910;DHT22;24676;51.360;12.354;2023-05-23T08:00:20;17.70;99.90
38910;DHT22;24676;51.360;12.354;2023-05-23T08:03:05;17.60;99.90
38910;DHT22;24676;51.360;12.354;2023-05-23T08:05:49;17.50;99.90
38910;DHT22;24676;51.360;12.354;2023-05-23T08:08:34;17.50;99.90
38910;DHT22;24676;51.360;12.354;2023-05-23T08:11:19;17.50;99.90
38910;DHT22;24676;51.360;12.354;2023-05-23T08:14:03;17.50;99.90
38910;DHT22;24676;51.360;12.354;2023-05-23T08:16:47;17.50;99.90
38910;DHT22;24676;51.360;12.354;2023-05-23T08:19:32;17.60;99.90
38910;DHT22;24676;51.360;12.354;2023-05-23T08:22:16;17.60;99.90
38910;DHT22;24676;51.360;12.354;2023-05-23T08:25:01;17.60;99.90
38910;DHT22;24676;51.360;12.354;2023-05-23T08:27:46;17.60;99.90
38910;DHT22;24676;51.360;12.354;2023-05-23T08:30:30;17.60;99.90
38910;DHT22;24676;51.360;12.354;2023-05-23T08:33:16;17.60;99.90
38910;DHT22;24676;51.360;12.354;2023-05-23T08:36:00;17.60;99.90
38910;DHT22;24676;51.360;12.354;2023-05-23T08:38:44;17.70;99.90
38910;DHT22;24676;51.360;12.354;2023-05-23T08:41:29;17.70;99.90
38910;DHT22;24676;51.360;12.354;2023-05-23T08:44:13;17.80;99.90
38910;DHT22;24676;51.360;12.354;2023-05-23T08:47:02;18.00;99.90
38910;DHT22;24676;51.360;12.354;2023-05-23T08:49:51;18.10;99.90
38910;DHT22;24676;51.360;12.354;2023-05-23T08:52:43;18.30;99.90
38910;DHT22;24676;51.360;12.354;2023-05-23T08:55:29;18.50;99.90
38910;DHT22;24676;51.360;12.354;2023-05-23T08:58:14;18.70;99.90
38910;DHT22;24676;51.360;12.354;2023-05-23T09:00:59;19.00;99.90
38910;DHT22;24676;51.360;12.354;2023-05-23T09:03:43;19.20;99.90
38910;DHT22;24676;51.360;12.354;2023-05-23T09:06:27;19.40;99.90
38910;DHT22;24676;51.360;12.354;2023-05-23T09:09:11;19.40;99.90
38910;DHT22;24676;51.360;12.354;2023-05-23T09:11:57;19.30;99.90
38910;DHT22;24676;51.360;12.354;2023-05-23T09:14:42;19.40;99.90
38910;DHT22;24676;51.360;12.354;2023-05-23T09:17:30;19.50;99.90
38910;DHT22;24676;51.360;12.354;2023-05-23T09:20:16;19.20;99.90
38910;DHT22;24676;51.360;12.354;2023-05-23T09:23:00;19.00;99.90
38910;DHT22;24676;51.360;12.354;2023-05-23T09:25:49;18.80;99.90
38910;DHT22;24676;51.360;12.354;2023-05-23T09:28:34;18.70;99.90
38910;DHT22;24676;51.360;12.354;2023-05-23T09:31:18;18.50;99.90
38910;DHT22;24676;51.360;12.354;2023-05-23T09:34:08;18.40;99.90
38910;DHT22;24676;51.360;12.354;2023-05-23T09:36:54;18.20;99.90
38910;DHT22;24676;51.360;12.354;2023-05-23T09:39:38;18.00;99.90
38910;DHT22;24676;51.360;12.354;2023-05-23T09:42:22;17.90;99.90
38910;DHT22;24676;51.360;12.354;2023-05-23T09:45:07;17.90;99.90
38910;DHT22;24676;51.360;12.354;2023-05-23T09:47:51;17.80;99.90
38910;DHT22;24676;51.360;12.354;2023-05-23T09:50:36;17.70;99.90
38910;DHT22;24676;51.360;12.354;2023-05-23T09:53:20;17.70;99.90
38910;DHT22;24676;51.360;12.354;2023-05-23T09:56:06;17.60;99.90
38910;DHT22;24676;51.360;12.354;2023-05-23T09:58:55;17.50;99.90
38910;DHT22;24676;51.360;12.354;2023-05-23T10:01:43;17.50;99.90
38910;DHT22;24676;51.360;12.354;2023-05-23T10:04:33;17.40;99.90
38910;DHT22;24676;51.360;12.354;2023-05-23T10:07:20;17.40;99.90
38910;DHT22;24676;51.360;12.354;2023-05-23T10:10:07;17.40;99.90
38910;DHT22;24676;51.360;12.354;2023-05-23T10:12:55;17.30;99.90
38910;DHT22;24676;51.360;12.354;2023-05-23T10:15:41;17.30;99.90
38910;DHT22;24676;51.360;12.354;2023-05-23T10:18:28;17.30;99.90
38910;DHT22;24676;51.360;12.354;2023-05-23T10:21:18;17.30;99.90
38910;DHT22;24676;51.360;12.354;2023-05-23T10:24:04;17.40;99.90
38910;DHT22;24676;51.360;12.354;2023-05-23T10:26:48;17.40;99.90
38910;DHT22;24676;51.360;12.354;2023-05-23T10:29:33;17.40;99.90
38910;DHT22;24676;51.360;12.354;2023-05-23T10:32:18;17.50;99.90
38910;DHT22;24676;51.360;12.354;2023-05-23T10:35:14;17.50;99.90
38910;DHT22;24676;51.360;12.354;2023-05-23T10:47:00;17.50;99.90
38910;DHT22;24676;51.360;12.354;2023-05-23T10:49:51;17.40;99.90
38910;DHT22;24676;51.360;12.354;2023-05-23T10:52:39;17.20;99.90
38910;DHT22;24676;51.360;12.354;2023-05-23T10:55:24;17.00;99.90
38910;DHT22;24676;51.360;12.354;2023-05-23T11:00:59;17.00;99.90
38910;DHT22;24676;51.360;12.354;2023-05-23T11:06:39;17.20;99.90
38910;DHT22;24676;51.360;12.354;2023-05-23T11:09:27;17.40;99.90
38910;DHT22;24676;51.360;12.354;2023-05-23T11:12:11;17.70;99.90
38910;DHT22;24676;51.360;12.354;2023-05-23T11:14:55;18.00;99.90
38910;DHT22;24676;51.360;12.354;2023-05-23T11:17:51;18.60;99.90
38910;DHT22;24676;51.360;12.354;2023-05-23T11:20:37;18.80;99.90
38910;DHT22;24676;51.360;12.354;2023-05-23T11:23:23;18.80;99.90
38910;DHT22;24676;51.360;12.354;2023-05-23T11:26:29;18.50;99.90
38910;DHT22;24676;51.360;12.354;2023-05-23T11:29:15;18.20;99.90
38910;DHT22;24676;51.360;12.354;2023-05-23T11:31:59;18.10;99.90
38910;DHT22;24676;51.360;12.354;2023-05-23T11:34:44;17.90;99.90
38910;DHT22;24676;51.360;12.354;2023-05-23T11:37:29;17.60;99.90
38910;DHT22;24676;51.360;12.354;2023-05-23T11:40:26;17.40;99.90
38910;DHT22;24676;51.360;12.354;2023-05-23T11:43:13;17.20;99.90
38910;DHT22;24676;51.360;12.354;2023-05-23T11:46:07;17.00;99.90
38910;DHT22;24676;51.360;12.354;2023-05-23T11:48:51;17.00;99.90
38910;DHT22;24676;51.360;12.354;2023-05-23T11:51:36;17.00;99.90
38910;DHT22;24676;51.360;12.354;2023-05-23T11:54:24;17.10;99.90
38910;DHT22;24676;51.360;12.354;2023-05-23T11:57:09;17.20;99.90
38910;DHT22;24676;51.360;12.354;2023-05-23T11:59:54;17.20;99.90
38910;DHT22;24676;51.360;12.354;2023-05-23T12:02:40;17.10;99.90
38910;DHT22;24676;51.360;12.354;2023-05-23T12:05:24;16.90;99.90
38910;DHT22;24676;51.360;12.354;2023-05-23T12:08:11;16.70;99.90
38910;DHT22;24676;51.360;12.354;2023-05-23T12:11:00;16.50;99.90
38910;DHT22;24676;51.360;12.354;2023-05-23T12:13:45;16.30;99.90
38910;DHT22;24676;51.360;12.354;2023-05-23T12:16:29;16.30;99.90
38910;DHT22;24676;51.360;12.354;2023-05-23T12:19:15;16.30;99.90
38910;DHT22;24676;51.360;12.354;2023-05-23T12:22:05;16.30;99.90
38910;DHT22;24676;51.360;12.354;2023-05-23T12:24:54;16.10;99.90
38910;DHT22;24676;51.360;12.354;2023-05-23T12:27:41;16.00;99.90
38910;DHT22;24676;51.360;12.354;2023-05-23T12:30:27;16.00;99.90
38910;DHT22;24676;51.360;12.354;2023-05-23T12:33:11;16.00;99.90
38910;DHT22;24676;51.360;12.354;2023-05-23T12:35:56;16.10;99.90
38910;DHT22;24676;51.360;12.354;2023-05-23T12:38:41;16.20;99.90
38910;DHT22;24676;51.360;12.354;2023-05-23T12:41:28;16.20;99.90
38910;DHT22;24676;51.360;12.354;2023-05-23T12:44:14;16.30;99.90
38910;DHT22;24676;51.360;12.354;2023-05-23T12:46:59;16.50;99.90
38910;DHT22;24676;51.360;12.354;2023-05-23T12:49:43;16.60;99.90
38910;DHT22;24676;51.360;12.354;2023-05-23T12:52:29;16.80;99.90
38910;DHT22;24676;51.360;12.354;2023-05-23T12:55:14;17.00;99.90
38910;DHT22;24676;51.360;12.354;2023-05-23T12:57:58;17.00;99.90
38910;DHT22;24676;51.360;12.354;2023-05-23T13:00:42;17.10;99.90
38910;DHT22;24676;51.360;12.354;2023-05-23T13:03:28;17.10;99.90
38910;DHT22;24676;51.360;12.354;2023-05-23T13:06:14;17.00;99.90
38910;DHT22;24676;51.360;12.354;2023-05-23T13:08:59;16.80;99.90
38910;DHT22;24676;51.360;12.354;2023-05-23T13:11:43;16.60;99.90
38910;DHT22;24676;51.360;12.354;2023-05-23T13:14:28;16.50;99.90
38910;DHT22;24676;51.360;12.354;2023-05-23T13:17:12;16.50;99.90
38910;DHT22;24676;51.360;12.354;2023-05-23T13:19:56;16.50;99.90
38910;DHT22;24676;51.360;12.354;2023-05-23T13:22:40;16.50;99.90
38910;DHT22;24676;51.360;12.354;2023-05-23T13:25:25;16.50;99.90
38910;DHT22;24676;51.360;12.354;2023-05-23T13:28:09;16.60;99.90
38910;DHT22;24676;51.360;12.354;2023-05-23T13:30:53;16.50;99.90
38910;DHT22;24676;51.360;12.354;2023-05-23T13:33:38;16.40;99.90
38910;DHT22;24676;51.360;12.354;2023-05-23T13:36:21;16.20;99.90
38910;DHT22;24676;51.360;12.354;2023-05-23T13:39:06;16.10;99.90
38910;DHT22;24676;51.360;12.354;2023-05-23T13:41:51;16.00;99.90
38910;DHT22;24676;51.360;12.354;2023-05-23T13:44:35;15.90;99.90
38910;DHT22;24676;51.360;12.354;2023-05-23T13:47:19;15.80;99.90
38910;DHT22;24676;51.360;12.354;2023-05-23T13:50:04;15.70;99.90
38910;DHT22;24676;51.360;12.354;2023-05-23T13:52:49;15.70;99.90
38910;DHT22;24676;51.360;12.354;2023-05-23T13:55:33;15.70;99.90
38910;DHT22;24676;51.360;12.354;2023-05-23T13:58:17;15.60;99.90
38910;DHT22;24676;51.360;12.354;2023-05-23T14:01:01;15.50;99.90
38910;DHT22;24676;51.360;12.354;2023-05-23T14:03:45;15.60;99.90
38910;DHT22;24676;51.360;12.354;2023-05-23T14:06:30;15.60;99.90
38910;DHT22;24676;51.360;12.354;2023-05-23T14:09:15;15.50;99.90
38910;DHT22;24676;51.360;12.354;2023-05-23T14:11:59;15.50;99.90
38910;DHT22;24676;51.360;12.354;2023-05-23T14:14:44;15.50;99.90
38910;DHT22;24676;51.360;12.354;2023-05-23T14:17:28;15.40;99.90
38910;DHT22;24676;51.360;12.354;2023-05-23T14:20:12;15.40;99.90
38910;DHT22;24676;51.360;12.354;2023-05-23T14:22:56;15.30;99.90
38910;DHT22;24676;51.360;12.354;2023-05-23T14:25:41;15.30;99.90
38910;DHT22;24676;51.360;12.354;2023-05-23T14:28:25;15.30;99.90
38910;DHT22;24676;51.360;12.354;2023-05-23T14:31:10;15.30;99.90
38910;DHT22;24676;51.360;12.354;2023-05-23T14:33:54;15.30;99.90
38910;DHT22;24676;51.360;12.354;2023-05-23T14:36:39;15.40;99.90
38910;DHT22;24676;51.360;12.354;2023-05-23T14:39:27;15.50;99.90
38910;DHT22;24676;51.360;12.354;2023-05-23T14:42:11;15.60;99.90
38910;DHT22;24676;51.360;12.354;2023-05-23T14:44:56;15.60;99.90
38910;DHT22;24676;51.360;12.354;2023-05-23T14:47:40;15.50;99.90
38910;DHT22;24676;51.360;12.354;2023-05-23T14:50:25;15.30;99.90
38910;DHT22;24676;51.360;12.354;2023-05-23T14:53:10;15.20;99.90
38910;DHT22;24676;51.360;12.354;2023-05-23T14:55:54;15.10;99.90
38910;DHT22;24676;51.360;12.354;2023-05-23T14:58:38;15.00;99.90
38910;DHT22;24676;51.360;12.354;2023-05-23T15:01:24;15.00;99.90
38910;DHT22;24676;51.360;12.354;2023-05-23T15:04:08;14.80;99.90
38910;DHT22;24676;51.360;12.354;2023-05-23T15:06:52;14.70;99.90
38910;DHT22;24676;51.360;12.354;2023-05-23T15:09:36;14.70;99.90
38910;DHT22;24676;51.360;12.354;2023-05-23T15:12:20;14.60;99.90
38910;DHT22;24676;51.360;12.354;2023-05-23T15:15:05;14.60;99.90
38910;DHT22;24676;51.360;12.354;2023-05-23T15:17:49;14.50;99.90
38910;DHT22;24676;51.360;12.354;2023-05-23T15:20:34;14.50;99.90
38910;DHT22;24676;51.360;12.354;2023-05-23T15:23:22;14.40;99.90
38910;DHT22;24676;51.360;12.354;2023-05-23T15:26:06;14.40;99.90
38910;DHT22;24676;51.360;12.354;2023-05-23T15:28:51;14.30;99.90
38910;DHT22;24676;51.360;12.354;2023-05-23T15:31:35;14.30;99.90
38910;DHT22;24676;51.360;12.354;2023-05-23T15:34:20;14.20;99.90
38910;DHT22;24676;51.360;12.354;2023-05-23T15:37:04;14.20;99.90
38910;DHT22;24676;51.360;12.354;2023-05-23T15:39:49;14.10;99.90
38910;DHT22;24676;51.360;12.354;2023-05-23T15:42:34;14.00;99.90
38910;DHT22;24676;51.360;12.354;2023-05-23T15:45:18;13.90;99.90
38910;DHT22;24676;51.360;12.354;2023-05-23T15:48:03;13.80;99.90
38910;DHT22;24676;51.360;12.354;2023-05-23T15:50:47;13.60;99.90
38910;DHT22;24676;51.360;12.354;2023-05-23T15:53:31;13.60;99.90
38910;DHT22;24676;51.360;12.354;2023-05-23T15:56:16;13.60;99.90
38910;DHT22;24676;51.360;12.354;2023-05-23T15:59:00;13.50;99.90
38910;DHT22;24676;51.360;12.354;2023-05-23T16:01:44;13.50;99.90
38910;DHT22;24676;51.360;12.354;2023-05-23T16:04:29;13.40;99.90
38910;DHT22;24676;51.360;12.354;2023-05-23T16:07:13;13.30;99.90
38910;DHT22;24676;51.360;12.354;2023-05-23T16:09:58;13.30;99.90
38910;DHT22;24676;51.360;12.354;2023-05-23T16:12:42;13.30;99.90
38910;DHT22;24676;51.360;12.354;2023-05-23T16:15:26;13.30;99.90
38910;DHT22;24676;51.360;12.354;2023-05-23T16:18:11;13.20;99.90
38910;DHT22;24676;51.360;12.354;2023-05-23T16:20:55;13.20;99.90
38910;DHT22;24676;51.360;12.354;2023-05-23T16:23:40;13.20;99.90
38910;DHT22;24676;51.360;12.354;2023-05-23T16:26:24;13.20;99.90
38910;DHT22;24676;51.360;12.354;2023-05-23T16:29:09;13.10;99.90
38910;DHT22;24676;51.360;12.354;2023-05-23T16:31:55;13.10;99.90
38910;DHT22;24676;51.360;12.354;2023-05-23T16:34:39;13.10;99.90
38910;DHT22;24676;51.360;12.354;2023-05-23T16:37:23;13.10;99.90
38910;DHT22;24676;51.360;12.354;2023-05-23T16:40:08;13.00;99.90
38910;DHT22;24676;51.360;12.354;2023-05-23T16:42:52;13.10;99.90
38910;DHT22;24676;51.360;12.354;2023-05-23T16:45:36;13.10;99.90
38910;DHT22;24676;51.360;12.354;2023-05-23T16:48:20;13.10;99.90
38910;DHT22;24676;51.360;12.354;2023-05-23T16:51:05;13.10;99.90
38910;DHT22;24676;51.360;12.354;2023-05-23T16:53:49;13.10;99.90
38910;DHT22;24676;51.360;12.354;2023-05-23T16:56:33;13.10;99.90
38910;DHT22;24676;51.360;12.354;2023-05-23T16:59:18;13.10;99.90
38910;DHT22;24676;51.360;12.354;2023-05-23T17:02:02;13.10;99.90
38910;DHT22;24676;51.360;12.354;2023-05-23T17:04:47;13.10;99.90
38910;DHT22;24676;51.360;12.354;2023-05-23T17:07:31;13.10;99.90
38910;DHT22;24676;51.360;12.354;2023-05-23T17:10:16;13.10;99.90
38910;DHT22;24676;51.360;12.354;2023-05-23T17:13:00;13.10;99.90
38910;DHT22;24676;51.360;12.354;2023-05-23T17:15:44;13.10;99.90
38910;DHT22;24676;51.360;12.354;2023-05-23T17:18:29;13.20;99.90
38910;DHT22;24676;51.360;12.354;2023-05-23T17:21:13;13.30;99.90
38910;DHT22;24676;51.360;12.354;2023-05-23T17:23:58;13.40;99.90